createdAt,value
2017-09-22T00:02:05.289Z,19.77
2017-09-22T00:04:32.613Z,18.17
2017-09-22T00:06:59.916Z,19.47
2017-09-22T00:09:27.249Z,18.33
2017-09-22T00:11:54.588Z,19.23
2017-09-22T00:14:21.954Z,20.37
2017-09-22T00:16:49.256Z,20.77
2017-09-22T00:19:16.596Z,21.10
2017-09-22T00:21:43.948Z,21.93
2017-09-22T00:24:11.277Z,20.67
2017-09-22T00:26:38.624Z,21.13
2017-09-22T00:29:05.966Z,20.20
2017-09-22T00:31:33.316Z,20.10
2017-09-22T00:34:00.649Z,19.73
2017-09-22T00:36:27.961Z,20.00
2017-09-22T00:38:55.290Z,17.27
2017-09-22T00:41:22.621Z,17.90
2017-09-22T00:43:49.936Z,16.77
2017-09-22T00:46:17.252Z,17.30
2017-09-22T00:48:44.619Z,17.57
2017-09-22T00:51:11.932Z,18.73
2017-09-22T00:53:39.269Z,18.73
2017-09-22T00:56:06.586Z,17.07
2017-09-22T00:58:33.894Z,16.90
2017-09-22T01:01:01.227Z,17.17
2017-09-22T01:03:28.535Z,18.80
2017-09-22T01:05:55.885Z,18.87
2017-09-22T01:08:23.251Z,17.37
2017-09-22T01:10:50.576Z,18.43
2017-09-22T01:13:17.913Z,18.90
2017-09-22T01:15:45.232Z,19.27
2017-09-22T01:18:12.550Z,20.20
2017-09-22T01:20:39.851Z,21.20
2017-09-22T01:23:07.181Z,22.23
2017-09-22T01:25:34.510Z,22.80
2017-09-22T01:28:02.185Z,22.60
2017-09-22T01:30:29.476Z,23.20
2017-09-22T01:32:56.792Z,20.37
2017-09-22T01:35:24.091Z,20.03
2017-09-22T01:37:51.414Z,19.27
2017-09-22T01:40:18.751Z,19.63
2017-09-22T01:42:46.112Z,19.30
2017-09-22T01:45:13.438Z,19.63
2017-09-22T01:47:40.788Z,17.87
2017-09-22T01:50:08.127Z,19.10
2017-09-22T01:52:35.464Z,18.03
2017-09-22T01:55:02.791Z,17.10
2017-09-22T01:57:30.149Z,18.00
2017-09-22T01:59:57.480Z,21.30
2017-09-22T02:02:24.804Z,19.23
2017-09-22T02:04:52.110Z,17.13
2017-09-22T02:07:19.439Z,17.83
2017-09-22T02:09:46.740Z,18.07
2017-09-22T02:12:14.101Z,18.40
2017-09-22T02:14:41.440Z,17.10
2017-09-22T02:17:08.759Z,16.57
2017-09-22T02:19:36.076Z,18.47
2017-09-22T02:22:03.389Z,18.20
2017-09-22T02:24:30.703Z,18.17
2017-09-22T02:26:58.023Z,17.77
2017-09-22T02:29:25.331Z,19.33
2017-09-22T02:31:52.639Z,19.50
2017-09-22T02:34:19.972Z,20.17
2017-09-22T02:36:47.286Z,18.90
2017-09-22T02:39:14.605Z,18.83
2017-09-22T02:41:41.905Z,17.77
2017-09-22T02:44:09.230Z,18.47
2017-09-22T02:46:36.528Z,18.50
2017-09-22T02:49:03.861Z,18.00
2017-09-22T02:51:31.154Z,16.97
2017-09-22T02:53:58.504Z,16.53
2017-09-22T02:56:25.808Z,16.20
2017-09-22T02:58:53.116Z,17.40
2017-09-22T03:01:20.450Z,17.97
2017-09-22T03:03:47.754Z,19.53
2017-09-22T03:06:15.113Z,19.77
2017-09-22T03:08:42.412Z,20.60
2017-09-22T03:11:09.808Z,19.70
2017-09-22T03:13:37.400Z,19.67
2017-09-22T03:16:04.721Z,19.97
2017-09-22T03:18:32.340Z,19.70
2017-09-22T03:20:59.643Z,18.93
2017-09-22T03:23:26.984Z,19.23
2017-09-22T03:25:54.320Z,18.20
2017-09-22T03:28:21.643Z,21.00
2017-09-22T03:30:48.968Z,20.40
2017-09-22T03:33:16.268Z,20.87
2017-09-22T03:35:43.650Z,22.20
2017-09-22T03:38:10.928Z,20.83
2017-09-22T03:40:38.256Z,20.60
2017-09-22T03:43:05.576Z,20.20
2017-09-22T03:45:32.880Z,21.97
2017-09-22T03:48:00.191Z,21.07
2017-09-22T03:50:27.515Z,21.37
2017-09-22T03:52:54.836Z,21.10
2017-09-22T03:55:22.149Z,20.00
2017-09-22T03:57:49.464Z,19.30
2017-09-22T04:00:16.801Z,21.40
2017-09-22T04:02:44.131Z,20.20
2017-09-22T04:05:11.665Z,19.40
2017-09-22T04:07:38.984Z,21.17
2017-09-22T04:10:06.476Z,20.17
2017-09-22T04:12:33.816Z,20.13
2017-09-22T04:15:01.131Z,20.97
2017-09-22T04:17:28.427Z,19.93
2017-09-22T04:19:55.744Z,21.30
2017-09-22T04:22:23.053Z,20.93
2017-09-22T04:24:50.368Z,20.73
2017-09-22T04:27:17.676Z,21.10
2017-09-22T04:29:45.340Z,22.23
2017-09-22T04:32:12.931Z,21.47
2017-09-22T04:34:40.249Z,19.33
2017-09-22T04:37:07.567Z,20.50
2017-09-22T04:39:34.884Z,20.00
2017-09-22T04:42:02.208Z,20.87
2017-09-22T04:44:29.520Z,21.13
2017-09-22T04:46:56.815Z,20.20
2017-09-22T04:49:24.161Z,20.70
2017-09-22T04:51:51.460Z,20.10
2017-09-22T04:54:18.793Z,19.77
2017-09-22T04:56:46.086Z,19.73
2017-09-22T04:59:13.425Z,20.00
2017-09-22T05:01:40.720Z,20.73
2017-09-22T05:04:08.024Z,18.47
2017-09-22T05:06:35.350Z,19.60
2017-09-22T05:09:02.654Z,18.30
2017-09-22T05:11:30.336Z,17.00
2017-09-22T05:13:57.671Z,17.73
2017-09-22T05:16:24.996Z,18.23
2017-09-22T05:18:52.323Z,17.37
2017-09-22T05:21:19.672Z,16.83
2017-09-22T05:23:47.000Z,17.53
2017-09-22T05:26:14.347Z,18.97
2017-09-22T05:28:41.677Z,17.93
2017-09-22T05:31:09.048Z,17.57
2017-09-22T05:33:36.418Z,17.40
2017-09-22T05:36:03.853Z,18.60
2017-09-22T05:38:31.162Z,19.47
2017-09-22T05:40:58.501Z,18.50
2017-09-22T05:43:25.845Z,17.73
2017-09-22T05:45:53.914Z,17.97
2017-09-22T05:48:21.227Z,18.10
2017-09-22T05:50:48.572Z,17.03
2017-09-22T05:53:15.928Z,17.70
2017-09-22T05:55:43.256Z,17.20
2017-09-22T05:58:10.624Z,17.77
2017-09-22T06:00:37.963Z,17.20
2017-09-22T06:03:05.752Z,16.90
2017-09-22T06:05:33.955Z,15.80
2017-09-22T06:08:01.720Z,16.23
2017-09-22T06:10:29.384Z,15.90
2017-09-22T06:12:56.712Z,17.17
2017-09-22T06:15:24.022Z,16.27
2017-09-22T06:17:51.341Z,16.10
2017-09-22T06:20:18.649Z,15.47
2017-09-22T06:22:45.967Z,15.33
2017-09-22T06:25:13.301Z,15.90
2017-09-22T06:27:40.665Z,15.80
2017-09-22T06:30:07.994Z,15.77
2017-09-22T06:32:35.642Z,16.00
2017-09-22T06:35:02.977Z,14.50
2017-09-22T06:37:30.329Z,14.60
2017-09-22T06:39:57.644Z,14.50
2017-09-22T06:42:24.990Z,12.40
2017-09-22T06:44:52.327Z,11.00
2017-09-22T06:47:19.623Z,11.30
2017-09-22T06:49:46.959Z,10.57
2017-09-22T06:52:14.270Z,12.07
2017-09-22T06:54:41.581Z,12.83
2017-09-22T06:57:08.894Z,11.80
2017-09-22T06:59:36.220Z,12.17
2017-09-22T07:02:03.537Z,11.73
2017-09-22T07:04:30.879Z,10.93
2017-09-22T07:06:58.235Z,10.33
2017-09-22T07:09:25.575Z,10.00
2017-09-22T07:11:52.881Z,10.30
2017-09-22T07:14:20.201Z,8.20
2017-09-22T07:16:48.325Z,7.80
2017-09-22T07:19:15.669Z,7.40
2017-09-22T07:21:43.016Z,7.87
2017-09-22T07:24:10.363Z,7.73
2017-09-22T07:26:37.745Z,7.87
2017-09-22T07:29:05.616Z,10.47
2017-09-22T07:31:32.951Z,9.30
2017-09-22T07:34:00.312Z,8.23
2017-09-22T07:36:27.629Z,6.30
2017-09-22T07:38:54.979Z,5.90
2017-09-22T07:41:22.323Z,5.97
2017-09-22T07:43:49.643Z,6.00
2017-09-22T07:46:16.963Z,5.30
2017-09-22T07:48:44.282Z,6.33
2017-09-22T07:51:11.609Z,4.57
2017-09-22T07:53:38.927Z,4.37
2017-09-22T07:56:06.274Z,4.00
2017-09-22T07:58:33.978Z,3.90
2017-09-22T08:01:01.366Z,4.13
2017-09-22T08:03:28.722Z,3.70
2017-09-22T08:05:56.016Z,3.40
2017-09-22T08:08:23.321Z,3.00
2017-09-22T08:10:50.630Z,3.20
2017-09-22T08:13:17.937Z,2.80
2017-09-22T08:15:45.251Z,2.53
2017-09-22T08:18:12.581Z,3.30
2017-09-22T08:20:39.906Z,2.93
2017-09-22T08:23:07.220Z,2.50
2017-09-22T08:25:34.570Z,2.37
2017-09-22T08:28:01.934Z,2.37
2017-09-22T08:30:29.236Z,2.10
2017-09-22T08:32:56.578Z,2.33
2017-09-22T08:35:23.903Z,2.37
2017-09-22T08:37:51.245Z,2.50
2017-09-22T08:40:18.544Z,2.60
2017-09-22T08:42:45.922Z,2.70
2017-09-22T08:45:13.222Z,2.60
2017-09-22T08:47:40.549Z,2.27
2017-09-22T08:50:07.853Z,2.87
2017-09-22T08:52:35.173Z,2.50
2017-09-22T08:55:02.465Z,2.57
2017-09-22T08:57:29.817Z,2.27
2017-09-22T08:59:57.105Z,2.70
2017-09-22T09:02:24.397Z,2.80
2017-09-22T09:04:51.711Z,2.93
2017-09-22T09:07:19.044Z,2.90
2017-09-22T09:09:46.371Z,2.70
2017-09-22T09:12:13.657Z,2.60
2017-09-22T09:14:40.981Z,3.30
2017-09-22T09:17:08.374Z,2.70
2017-09-22T09:19:35.710Z,2.80
2017-09-22T09:22:02.999Z,2.90
2017-09-22T09:24:30.361Z,5.17
2017-09-22T09:26:57.672Z,4.87
2017-09-22T09:29:25.094Z,3.60
2017-09-22T09:31:52.467Z,3.00
2017-09-22T09:34:19.799Z,3.00
2017-09-22T09:36:47.113Z,3.03
2017-09-22T09:39:14.473Z,2.50
2017-09-22T09:41:41.775Z,2.83
2017-09-22T09:44:09.069Z,2.83
2017-09-22T09:46:36.409Z,3.20
2017-09-22T09:49:03.745Z,3.10
2017-09-22T09:51:31.073Z,3.40
2017-09-22T09:53:58.369Z,3.50
2017-09-22T09:56:25.671Z,3.13
2017-09-22T09:58:53.022Z,3.00
2017-09-22T10:01:20.391Z,2.90
2017-09-22T10:03:47.699Z,2.80
2017-09-22T10:06:15.040Z,3.60
2017-09-22T10:08:42.590Z,3.40
2017-09-22T10:11:09.907Z,3.17
2017-09-22T10:13:37.217Z,2.90
2017-09-22T10:16:04.510Z,3.53
2017-09-22T10:18:31.840Z,3.57
2017-09-22T10:20:59.169Z,3.80
2017-09-22T10:23:26.506Z,3.23
2017-09-22T10:25:53.846Z,3.50
2017-09-22T10:28:21.187Z,3.27
2017-09-22T10:30:48.857Z,3.17
2017-09-22T10:33:16.171Z,3.20
2017-09-22T10:35:43.485Z,3.33
2017-09-22T10:38:10.971Z,3.03
2017-09-22T10:40:38.290Z,3.53
2017-09-22T10:43:05.585Z,3.27
2017-09-22T10:45:32.908Z,3.37
2017-09-22T10:48:00.245Z,3.23
2017-09-22T10:50:27.594Z,3.63
2017-09-22T10:52:54.915Z,3.53
2017-09-22T10:55:22.281Z,3.70
2017-09-22T10:57:49.909Z,3.30
2017-09-22T11:00:17.201Z,3.27
2017-09-22T11:02:44.514Z,3.47
2017-09-22T11:05:11.832Z,3.30
2017-09-22T11:07:40.269Z,3.50
2017-09-22T11:10:08.057Z,3.07
2017-09-22T11:12:35.817Z,2.80
2017-09-22T11:15:03.128Z,2.70
2017-09-22T11:17:30.431Z,2.90
2017-09-22T11:19:57.726Z,3.03
2017-09-22T11:22:25.053Z,2.93
2017-09-22T11:24:52.343Z,2.87
2017-09-22T11:27:19.664Z,3.07
2017-09-22T11:29:47.015Z,2.80
2017-09-22T11:32:14.357Z,2.90
2017-09-22T11:34:41.977Z,3.10
2017-09-22T11:37:09.307Z,3.40
2017-09-22T11:39:36.616Z,3.17
2017-09-22T11:42:03.916Z,2.97
2017-09-22T11:44:31.278Z,2.70
2017-09-22T11:46:58.578Z,2.80
2017-09-22T11:49:25.893Z,2.70
2017-09-22T11:51:53.186Z,2.70
2017-09-22T11:54:20.529Z,2.57
2017-09-22T11:56:48.048Z,2.60
2017-09-22T11:59:15.528Z,2.73
2017-09-22T12:01:42.874Z,2.90
2017-09-22T12:04:10.185Z,2.63
2017-09-22T12:06:37.533Z,2.63
2017-09-22T12:09:04.839Z,2.80
2017-09-22T12:11:32.149Z,2.73
2017-09-22T12:13:59.491Z,3.00
2017-09-22T12:16:26.809Z,2.87
2017-09-22T12:18:54.105Z,3.00
2017-09-22T12:21:21.425Z,2.83
2017-09-22T12:23:48.719Z,2.90
2017-09-22T12:26:16.083Z,2.30
2017-09-22T12:28:43.377Z,3.10
2017-09-22T12:31:11.605Z,2.07
2017-09-22T12:33:38.922Z,2.37
2017-09-22T12:36:06.211Z,2.13
2017-09-22T12:38:33.788Z,2.17
2017-09-22T12:41:01.112Z,2.60
2017-09-22T12:43:28.435Z,2.40
2017-09-22T12:45:55.788Z,2.20
2017-09-22T12:48:23.095Z,2.60
2017-09-22T12:50:50.394Z,2.63
2017-09-22T12:53:17.702Z,2.33
2017-09-22T12:55:45.182Z,2.97
2017-09-22T12:58:12.484Z,2.70
2017-09-22T13:00:39.798Z,2.83
2017-09-22T13:03:07.080Z,2.97
2017-09-22T13:05:34.429Z,2.77
2017-09-22T13:08:02.003Z,2.80
2017-09-22T13:10:29.359Z,2.10
2017-09-22T13:12:56.639Z,3.60
2017-09-22T13:15:24.031Z,2.70
2017-09-22T13:17:51.325Z,2.27
2017-09-22T13:20:18.823Z,2.30
2017-09-22T13:22:46.146Z,3.07
2017-09-22T13:25:13.755Z,2.47
2017-09-22T13:27:41.069Z,2.77
2017-09-22T13:30:08.366Z,2.50
2017-09-22T13:32:35.693Z,2.60
2017-09-22T13:35:03.012Z,2.40
2017-09-22T13:37:30.348Z,2.33
2017-09-22T13:39:57.641Z,2.20
2017-09-22T13:42:24.932Z,2.40
2017-09-22T13:44:52.240Z,2.50
2017-09-22T13:47:19.571Z,2.50
2017-09-22T13:49:46.877Z,2.37
2017-09-22T13:52:14.188Z,2.33
2017-09-22T13:54:41.502Z,2.10
2017-09-22T13:57:08.797Z,2.40
2017-09-22T13:59:36.161Z,2.10
2017-09-22T14:02:03.462Z,2.70
2017-09-22T14:04:30.755Z,2.27
2017-09-22T14:06:58.070Z,2.40
2017-09-22T14:09:25.776Z,2.33
2017-09-22T14:11:53.234Z,2.30
2017-09-22T14:14:20.541Z,2.50
2017-09-22T14:16:48.016Z,2.27
2017-09-22T14:19:15.325Z,2.80
2017-09-22T14:21:42.923Z,2.23
2017-09-22T14:24:10.261Z,2.10
2017-09-22T14:26:37.595Z,2.50
2017-09-22T14:29:05.084Z,2.27
2017-09-22T14:31:32.677Z,2.13
2017-09-22T14:33:59.975Z,2.40
2017-09-22T14:36:27.293Z,2.13
2017-09-22T14:38:54.625Z,2.40
2017-09-22T14:41:21.953Z,2.60
2017-09-22T14:43:49.298Z,2.50
2017-09-22T14:46:16.665Z,1.87
2017-09-22T14:48:43.983Z,2.10
2017-09-22T14:51:11.353Z,2.60
2017-09-22T14:53:38.653Z,2.10
2017-09-22T14:56:05.970Z,2.27
2017-09-22T14:58:34.094Z,2.13
2017-09-22T15:01:01.438Z,2.10
2017-09-22T15:03:28.749Z,2.10
2017-09-22T15:05:56.108Z,2.20
2017-09-22T15:08:23.411Z,2.10
2017-09-22T15:10:50.712Z,2.10
2017-09-22T15:13:18.005Z,2.20
2017-09-22T15:15:45.348Z,2.00
2017-09-22T15:18:12.673Z,2.10
2017-09-22T15:20:39.984Z,1.93
2017-09-22T15:23:07.290Z,1.87
2017-09-22T15:25:34.629Z,1.90
2017-09-22T15:28:01.957Z,1.90
2017-09-22T15:30:29.314Z,1.97
2017-09-22T15:32:56.631Z,1.77
2017-09-22T15:35:23.961Z,2.00
2017-09-22T15:37:51.247Z,2.00
2017-09-22T15:40:18.550Z,1.90
2017-09-22T15:42:45.847Z,1.80
2017-09-22T15:45:13.144Z,1.90
2017-09-22T15:47:40.456Z,2.30
2017-09-22T15:50:08.151Z,2.20
2017-09-22T15:52:35.459Z,2.30
2017-09-22T15:55:02.762Z,1.90
2017-09-22T15:57:30.099Z,1.90
2017-09-22T15:59:57.380Z,2.10
2017-09-22T16:02:24.724Z,2.10
2017-09-22T16:04:52.026Z,1.90
2017-09-22T16:07:19.337Z,2.20
2017-09-22T16:09:46.628Z,2.03
2017-09-22T16:12:13.961Z,2.23
2017-09-22T16:14:41.280Z,2.27
2017-09-22T16:17:08.583Z,2.90
2017-09-22T16:19:35.882Z,2.60
2017-09-22T16:22:03.510Z,2.30
2017-09-22T16:24:30.883Z,4.73
2017-09-22T16:26:58.173Z,3.87
2017-09-22T16:29:25.485Z,3.87
2017-09-22T16:31:52.822Z,3.50
2017-09-22T16:34:20.173Z,3.60
2017-09-22T16:36:47.799Z,3.57
2017-09-22T16:39:15.153Z,3.80
2017-09-22T16:41:42.494Z,3.20
2017-09-22T16:44:09.838Z,3.53
2017-09-22T16:46:37.160Z,3.50
2017-09-22T16:49:04.489Z,3.50
2017-09-22T16:51:31.793Z,3.10
2017-09-22T16:53:59.096Z,3.17
2017-09-22T16:56:26.479Z,2.90
2017-09-22T16:58:53.796Z,2.83
2017-09-22T17:01:21.110Z,3.03
2017-09-22T17:03:48.425Z,3.37
2017-09-22T17:06:16.709Z,3.50
2017-09-22T17:08:44.012Z,4.47
2017-09-22T17:11:11.309Z,3.57
2017-09-22T17:13:38.656Z,3.80
2017-09-22T17:16:05.996Z,4.20
2017-09-22T17:18:33.362Z,4.77
2017-09-22T17:21:00.675Z,4.70
2017-09-22T17:23:28.053Z,6.27
2017-09-22T17:25:55.373Z,4.93
2017-09-22T17:28:22.705Z,6.70
2017-09-22T17:30:50.069Z,18.10
2017-09-22T17:33:17.378Z,16.03
2017-09-22T17:35:44.721Z,7.90
2017-09-22T17:38:12.045Z,7.13
2017-09-22T17:40:39.374Z,7.50
2017-09-22T17:43:06.683Z,8.77
2017-09-22T17:45:34.010Z,7.53
2017-09-22T17:48:01.318Z,8.87
2017-09-22T17:50:28.665Z,8.13
2017-09-22T17:52:56.285Z,8.97
2017-09-22T17:55:23.604Z,9.73
2017-09-22T17:57:50.908Z,10.17
2017-09-22T18:00:18.244Z,11.50
2017-09-22T18:02:45.569Z,10.70
2017-09-22T18:05:13.714Z,9.93
2017-09-22T18:07:41.034Z,9.70
2017-09-22T18:10:08.638Z,9.17
2017-09-22T18:12:35.970Z,10.30
2017-09-22T18:15:03.324Z,10.00
2017-09-22T18:17:30.645Z,10.10
2017-09-22T18:19:58.021Z,9.77
2017-09-22T18:22:25.332Z,9.20
2017-09-22T18:24:52.666Z,9.70
2017-09-22T18:27:19.981Z,10.10
2017-09-22T18:29:47.276Z,9.40
2017-09-22T18:32:14.599Z,11.00
2017-09-22T18:34:41.911Z,10.93
2017-09-22T18:37:09.245Z,10.87
2017-09-22T18:39:36.611Z,10.47
2017-09-22T18:42:03.974Z,10.40
2017-09-22T18:44:31.341Z,11.13
2017-09-22T18:46:58.670Z,11.40
2017-09-22T18:49:26.046Z,12.87
2017-09-22T18:51:53.375Z,12.03
2017-09-22T18:54:20.691Z,12.20
2017-09-22T18:56:48.304Z,12.33
2017-09-22T18:59:15.720Z,12.37
2017-09-22T19:01:43.048Z,12.60
2017-09-22T19:04:10.366Z,13.30
2017-09-22T19:06:37.685Z,13.50
2017-09-22T19:09:04.993Z,14.10
2017-09-22T19:11:32.336Z,15.43
2017-09-22T19:13:59.647Z,16.30
2017-09-22T19:16:27.301Z,14.77
2017-09-22T19:18:54.819Z,15.60
2017-09-22T19:21:22.116Z,13.33
2017-09-22T19:23:49.446Z,13.80
2017-09-22T19:26:16.766Z,13.50
2017-09-22T19:28:47.505Z,14.17
2017-09-22T19:31:14.810Z,14.50
2017-09-22T19:33:42.137Z,13.50
2017-09-22T19:36:09.470Z,14.20
2017-09-22T19:38:36.830Z,14.23
2017-09-22T19:41:04.147Z,14.43
2017-09-22T19:43:31.521Z,15.60
2017-09-22T19:45:58.820Z,16.13
2017-09-22T19:48:26.506Z,15.90
2017-09-22T19:50:53.829Z,14.47
2017-09-22T19:53:21.163Z,16.70
2017-09-22T19:55:48.516Z,17.13
2017-09-22T19:58:15.862Z,16.90
2017-09-22T20:00:43.198Z,16.40
2017-09-22T20:03:10.529Z,16.20
2017-09-22T20:05:37.866Z,16.23
2017-09-22T20:08:07.153Z,17.93
2017-09-22T20:10:34.513Z,18.47
2017-09-22T20:13:01.857Z,19.47
2017-09-22T20:15:29.220Z,22.20
2017-09-22T20:17:57.383Z,18.63
2017-09-22T20:20:24.826Z,20.40
2017-09-22T20:22:52.229Z,19.07
2017-09-22T20:25:19.554Z,20.40
2017-09-22T20:27:46.919Z,20.87
2017-09-22T20:30:14.282Z,19.90
2017-09-22T20:32:41.598Z,20.10
2017-09-22T20:35:09.026Z,19.00
2017-09-22T20:37:36.386Z,18.70
2017-09-22T20:40:03.788Z,20.40
2017-09-22T20:42:31.064Z,20.00
2017-09-22T20:44:58.432Z,22.80
2017-09-22T20:47:25.742Z,21.37
2017-09-22T20:49:53.086Z,21.60
2017-09-22T20:52:20.409Z,19.50
2017-09-22T20:54:48.072Z,18.60
2017-09-22T20:57:15.402Z,24.47
2017-09-22T20:59:42.787Z,23.07
2017-09-22T21:02:10.199Z,22.47
2017-09-22T21:04:37.561Z,26.37
2017-09-22T21:07:04.920Z,30.00
2017-09-22T21:09:32.250Z,24.10
2017-09-22T21:11:59.772Z,24.80
2017-09-22T21:14:27.096Z,26.50
2017-09-22T21:16:54.431Z,28.50
2017-09-22T21:19:21.769Z,26.83
2017-09-22T21:21:49.066Z,24.23
2017-09-22T21:24:16.379Z,29.07
2017-09-22T21:26:43.715Z,27.07
2017-09-22T21:29:11.045Z,25.90
2017-09-22T21:31:38.697Z,29.10
2017-09-22T21:34:06.050Z,27.17
2017-09-22T21:36:33.476Z,25.80
2017-09-22T21:39:00.809Z,26.60
2017-09-22T21:41:29.094Z,27.50
2017-09-22T21:43:56.417Z,27.90
2017-09-22T21:46:23.764Z,26.23
2017-09-22T21:48:51.101Z,26.37
2017-09-22T21:51:18.434Z,26.67
2017-09-22T21:53:45.737Z,26.80
2017-09-22T21:56:13.057Z,28.33
2017-09-22T21:58:40.661Z,27.70
2017-09-22T22:01:08.040Z,29.70
2017-09-22T22:03:41.205Z,30.27
2017-09-22T22:06:14.410Z,26.90
2017-09-22T22:08:41.713Z,28.20
2017-09-22T22:11:09.061Z,28.13
2017-09-22T22:13:36.398Z,26.80
2017-09-22T22:16:03.728Z,27.87
2017-09-22T22:18:31.088Z,29.63
2017-09-22T22:20:58.414Z,28.20
2017-09-22T22:23:25.756Z,27.87
2017-09-22T22:25:53.114Z,29.10
2017-09-22T22:28:20.453Z,28.80
2017-09-22T22:30:47.786Z,27.67
2017-09-22T22:33:15.133Z,27.50
2017-09-22T22:35:42.458Z,27.13
2017-09-22T22:38:13.629Z,27.57
2017-09-22T22:40:40.948Z,28.10
2017-09-22T22:43:08.309Z,29.07
2017-09-22T22:45:35.607Z,27.60
2017-09-22T22:48:02.993Z,27.10
2017-09-22T22:50:30.598Z,27.20
2017-09-22T22:52:57.987Z,25.20
2017-09-22T22:55:25.293Z,25.17
2017-09-22T22:57:52.622Z,24.77
2017-09-22T23:00:19.937Z,25.80
2017-09-22T23:02:47.241Z,24.90
2017-09-22T23:05:14.570Z,25.13
2017-09-22T23:07:41.885Z,23.47
2017-09-22T23:10:09.237Z,23.10
2017-09-22T23:12:36.569Z,23.20
2017-09-22T23:15:03.925Z,26.90
2017-09-22T23:17:31.544Z,28.33
2017-09-22T23:19:58.880Z,28.53
2017-09-22T23:22:26.175Z,25.60
2017-09-22T23:24:53.508Z,25.57
2017-09-22T23:27:20.812Z,23.27
2017-09-22T23:29:48.123Z,24.90
2017-09-22T23:32:15.428Z,23.57
2017-09-22T23:34:42.757Z,25.67
2017-09-22T23:37:10.088Z,26.07
2017-09-22T23:39:37.441Z,26.03
2017-09-22T23:42:04.756Z,24.00
2017-09-22T23:44:32.134Z,25.70
2017-09-22T23:46:59.449Z,27.37
2017-09-22T23:49:26.806Z,29.47
2017-09-22T23:51:54.130Z,30.60
2017-09-22T23:54:21.493Z,29.90
2017-09-22T23:56:48.818Z,32.47
2017-09-22T23:59:16.178Z,31.53
